Time;durP1;ratioP1;P1;durP2;ratioP2;P2;SDS_P1;SDS_P2;PMS_P1;PMS_P2;Temp;Humidity;BMP_temperature;BMP_pressure;BME280_temperature;BME280_humidity;BME280_pressure;Samples;Min_cycle;Max_cycle;Signal;HPM_P1;HPM_P2
2021/05/24 14:58:25;;;;;;;1.55;0.50;;;24.40;36.80;;;;;;5017854;27;20365;-56
2021/05/24 15:02:52;;;;;;;0.75;0.20;;;24.30;35.00;;;;;;5043615;27;20374;-57
2021/05/24 15:05:17;;;;;;;1.13;0.30;;;24.50;35.40;;;;;;5026740;28;20389;-57
2021/05/24 15:07:43;;;;;;;2.50;0.40;;;24.60;34.30;;;;;;5025157;28;20042;-55
2021/05/24 15:10:09;;;;;;;0.77;0.20;;;24.60;34.50;;;;;;5023052;28;20054;-56
2021/05/24 15:12:35;;;;;;;0.80;0.30;;;24.50;34.10;;;;;;5036340;28;20490;-56
2021/05/24 15:15:00;;;;;;;1.55;0.30;;;24.40;33.90;;;;;;5058421;28;20064;-57
2021/05/24 15:17:26;;;;;;;0.90;0.30;;;24.40;34.20;;;;;;5046169;28;20045;-56
2021/05/24 15:19:52;;;;;;;2.78;0.20;;;24.40;33.80;;;;;;5040817;28;20044;-57
2021/05/24 15:22:18;;;;;;;0.45;0.20;;;24.10;32.90;;;;;;5040888;28;20026;-57
2021/05/24 15:24:47;;;;;;;1.40;0.52;;;24.00;34.60;;;;;;5033510;28;20035;-57
2021/05/24 15:27:19;;;;;;;1.70;0.40;;;24.10;34.70;;;;;;5048829;28;20033;-57
2021/05/24 15:29:46;;;;;;;0.15;0.10;;;24.20;35.00;;;;;;5045513;28;20484;-57
2021/05/24 15:32:12;;;;;;;0.10;0.10;;;24.30;33.70;;;;;;5040260;28;20494;-57
2021/05/24 15:34:40;;;;;;;0.40;0.20;;;24.30;33.60;;;;;;5042707;28;20591;-57
2021/05/24 15:37:09;;;;;;;0.68;0.13;;;24.30;33.10;;;;;;5045550;28;20029;-57
2021/05/24 15:39:38;;;;;;;0.40;0.30;;;24.40;34.00;;;;;;5042689;28;20133;-57
2021/05/24 15:42:04;;;;;;;4.10;0.75;;;24.30;33.10;;;;;;5041223;28;20115;-57
2021/05/24 15:44:31;;;;;;;0.60;0.20;;;24.30;32.80;;;;;;5040030;28;20442;-57
2021/05/24 15:46:57;;;;;;;1.08;0.15;;;24.30;33.20;;;;;;5043959;28;20428;-61
2021/05/24 15:49:23;;;;;;;1.58;0.13;;;24.30;32.90;;;;;;5019598;28;20054;-56
2021/05/24 15:51:49;;;;;;;0.30;0.20;;;24.30;33.80;;;;;;5023310;28;20086;-56
2021/05/24 15:54:14;;;;;;;0.32;0.20;;;24.30;33.30;;;;;;5029355;28;20033;-57
2021/05/24 15:56:40;;;;;;;1.05;0.50;;;24.30;33.10;;;;;;5031557;28;20042;-57
2021/05/24 15:59:05;;;;;;;0.98;0.40;;;24.20;33.00;;;;;;5022901;28;20108;-57
2021/05/24 16:01:31;;;;;;;1.17;0.95;;;24.10;33.60;;;;;;5024607;28;20034;-57
2021/05/24 16:03:59;;;;;;;3.50;2.30;;;24.10;32.90;;;;;;5024224;28;20101;-58
2021/05/24 16:06:25;;;;;;;2.50;0.95;;;24.10;33.30;;;;;;5025182;28;20032;-58
2021/05/24 16:08:50;;;;;;;1.63;0.90;;;24.10;33.20;;;;;;5023535;28;20014;-58
2021/05/24 16:11:16;;;;;;;1.20;0.60;;;24.00;33.30;;;;;;5025175;28;20037;-58
2021/05/24 16:13:42;;;;;;;1.45;1.17;;;24.00;33.00;;;;;;5011064;28;20022;-57
2021/05/24 16:16:07;;;;;;;0.93;0.50;;;23.90;33.60;;;;;;5009841;28;20048;-57
2021/05/24 16:18:34;;;;;;;3.40;0.60;;;23.80;33.70;;;;;;5011433;28;20026;-57
2021/05/24 16:21:00;;;;;;;1.42;0.47;;;23.70;33.90;;;;;;5009887;28;20033;-58
2021/05/24 16:23:35;;;;;;;0.80;0.50;;;23.70;34.30;;;;;;5009195;28;20048;-57
2021/05/24 16:26:12;;;;;;;3.58;0.52;;;23.70;34.90;;;;;;5014844;28;20049;-58
2021/05/24 16:28:41;;;;;;;0.40;0.25;;;23.70;35.00;;;;;;5014050;28;20041;-57
2021/05/24 16:31:08;;;;;;;0.77;0.38;;;23.70;35.30;;;;;;5009421;28;20134;-56
2021/05/24 16:33:34;;;;;;;1.35;0.40;;;23.60;35.20;;;;;;5013543;28;20113;-57
2021/05/24 16:35:59;;;;;;;0.55;0.40;;;23.50;34.80;;;;;;5010324;28;20124;-55
2021/05/24 16:38:25;;;;;;;0.47;0.30;;;23.40;35.60;;;;;;5008322;28;20144;-58
2021/05/24 16:40:52;;;;;;;0.55;0.40;;;23.30;35.30;;;;;;5010156;28;20030;-57
2021/05/24 16:43:17;;;;;;;2.45;0.68;;;23.20;35.50;;;;;;5008843;28;20025;-58
2021/05/24 16:45:43;;;;;;;7.88;0.68;;;23.20;36.00;;;;;;5017474;28;20362;-58
2021/05/24 16:48:13;;;;;;;0.57;0.30;;;23.10;36.40;;;;;;5016941;28;20068;-57
2021/05/24 16:50:40;;;;;;;2.28;0.40;;;23.00;36.40;;;;;;5009455;28;20390;-57
2021/05/24 16:53:05;;;;;;;1.45;0.40;;;22.90;36.70;;;;;;5008463;28;20030;-57
2021/05/24 16:55:31;;;;;;;2.08;0.30;;;22.80;36.50;;;;;;5006218;28;20037;-58
2021/05/24 16:57:57;;;;;;;1.95;0.50;;;22.80;36.80;;;;;;5008507;28;20051;-57
2021/05/24 17:00:23;;;;;;;0.88;0.20;;;22.70;36.90;;;;;;5010533;28;20076;-58
2021/05/24 17:02:48;;;;;;;1.77;0.50;;;22.70;37.00;;;;;;5016480;28;72844;-57
2021/05/24 17:05:16;;;;;;;0.68;0.45;;;22.60;37.40;;;;;;5020521;28;20027;-58
2021/05/24 17:07:42;;;;;;;0.43;0.30;;;22.60;37.30;;;;;;5024003;28;20026;-57
2021/05/24 17:10:11;;;;;;;3.22;0.40;;;22.50;36.90;;;;;;5022224;28;20029;-57
2021/05/24 17:12:37;;;;;;;0.82;0.40;;;22.50;37.00;;;;;;5025654;28;20053;-57
2021/05/24 17:15:04;;;;;;;1.58;0.40;;;22.50;37.40;;;;;;5020614;28;20502;-58
2021/05/24 17:17:30;;;;;;;0.75;0.20;;;22.40;37.00;;;;;;5023267;28;20021;-57
2021/05/24 17:19:55;;;;;;;0.85;0.43;;;22.40;36.90;;;;;;5020241;28;20488;-57
2021/05/24 17:22:21;;;;;;;1.58;1.02;;;22.30;36.60;;;;;;5020926;28;20785;-56
2021/05/24 17:24:46;;;;;;;4.25;0.50;;;22.10;37.30;;;;;;5020871;28;20041;-56
2021/05/24 17:27:12;;;;;;;3.28;0.50;;;21.90;39.20;;;;;;5020699;28;20041;-57
2021/05/24 17:29:37;;;;;;;0.73;0.43;;;21.60;39.00;;;;;;5020199;28;20053;-58
2021/05/24 17:32:03;;;;;;;2.05;0.55;;;21.40;41.30;;;;;;5016435;28;20030;-55
2021/05/24 17:34:29;;;;;;;3.40;0.98;;;21.10;42.10;;;;;;5022577;28;20445;-57
2021/05/24 17:36:54;;;;;;;1.88;0.40;;;21.00;41.50;;;;;;5024397;28;20037;-57
2021/05/24 17:39:20;;;;;;;2.90;1.02;;;20.70;41.90;;;;;;5022193;28;20052;-57
2021/05/24 17:41:45;;;;;;;5.75;0.57;;;20.50;42.50;;;;;;5025180;28;20509;-57
2021/05/24 17:44:11;;;;;;;2.33;0.50;;;20.20;43.00;;;;;;5019933;28;20048;-57
2021/05/24 17:46:37;;;;;;;2.75;0.35;;;20.00;43.40;;;;;;5024579;28;20163;-56
2021/05/24 17:49:03;;;;;;;3.05;0.82;;;19.80;44.00;;;;;;5023424;28;20029;-56
2021/05/24 17:51:32;;;;;;;4.25;0.50;;;19.60;44.40;;;;;;5020914;28;20798;-56
2021/05/24 17:53:57;;;;;;;2.65;0.60;;;19.50;45.10;;;;;;5021087;28;20135;-57
2021/05/24 17:56:23;;;;;;;0.93;0.50;;;19.30;46.10;;;;;;5025652;28;20427;-57
2021/05/24 17:58:50;;;;;;;1.58;0.57;;;19.10;46.70;;;;;;5019587;28;20521;-57
2021/05/24 18:01:17;;;;;;;3.80;0.95;;;18.90;46.70;;;;;;5021197;28;20037;-56
2021/05/24 18:03:42;;;;;;;2.85;0.52;;;18.80;47.80;;;;;;5024704;28;20040;-57
2021/05/24 18:06:08;;;;;;;6.45;0.50;;;18.80;48.10;;;;;;5022855;28;20022;-57
2021/05/24 18:08:35;;;;;;;2.63;0.40;;;18.70;48.40;;;;;;5021856;28;20123;-56
2021/05/24 18:11:02;;;;;;;3.15;0.40;;;18.60;48.80;;;;;;5023706;28;20310;-56
2021/05/24 18:13:28;;;;;;;1.65;0.28;;;18.50;49.10;;;;;;5025033;28;20486;-57
2021/05/24 18:15:54;;;;;;;2.25;0.75;;;18.30;49.50;;;;;;5023317;28;20091;-57
2021/05/24 18:18:32;;;;;;;3.10;0.90;;;18.10;50.50;;;;;;5021833;28;20034;-59
2021/05/24 18:20:57;;;;;;;0.65;0.40;;;18.00;51.00;;;;;;5022110;28;20045;-63
2021/05/24 18:23:23;;;;;;;1.50;0.55;;;17.80;51.30;;;;;;5020456;28;20418;-57
2021/05/24 18:25:49;;;;;;;0.65;0.38;;;17.70;51.40;;;;;;5023753;28;20045;-58
2021/05/24 18:28:15;;;;;;;5.10;0.55;;;17.60;52.00;;;;;;5021151;28;20065;-60
2021/05/24 18:30:49;;;;;;;2.33;0.30;;;17.50;52.40;;;;;;5023591;28;20029;-59
2021/05/24 18:33:15;;;;;;;2.88;0.50;;;17.40;52.80;;;;;;5024370;28;20086;-58
2021/05/24 18:35:41;;;;;;;1.05;0.50;;;17.20;53.00;;;;;;5018027;28;21250;-61
2021/05/24 18:38:12;;;;;;;3.70;0.50;;;17.20;53.40;;;;;;5022152;28;20052;-61
2021/05/24 18:40:39;;;;;;;4.18;0.73;;;17.10;53.70;;;;;;5022588;28;20025;-57
2021/05/24 18:43:10;;;;;;;2.67;0.68;;;17.00;53.90;;;;;;5021065;28;20029;-59
2021/05/24 18:45:37;;;;;;;2.30;0.65;;;17.00;54.20;;;;;;5019349;28;20060;-59
2021/05/24 18:48:03;;;;;;;1.85;0.60;;;17.00;54.20;;;;;;5023130;28;20022;-59
2021/05/24 18:50:28;;;;;;;0.90;0.50;;;17.00;54.40;;;;;;5018011;28;20045;-59
2021/05/24 18:52:54;;;;;;;4.10;0.60;;;16.90;54.50;;;;;;5023417;28;20082;-59
2021/05/24 18:55:20;;;;;;;1.83;0.57;;;16.80;54.90;;;;;;5024770;28;20021;-59
2021/05/24 18:57:47;;;;;;;1.58;0.32;;;16.80;55.40;;;;;;5021262;28;20853;-58
2021/05/24 19:00:18;;;;;;;1.27;0.50;;;16.70;55.70;;;;;;5021650;28;20216;-58
2021/05/24 19:02:48;;;;;;;2.55;0.70;;;16.60;56.20;;;;;;5026665;28;20037;-59
2021/05/24 19:08:00;;;;;;;2.95;0.95;;;16.60;56.90;;;;;;5023596;28;20084;-58
2021/05/24 19:10:25;;;;;;;3.25;0.73;;;16.60;57.90;;;;;;5027050;28;20431;-58
2021/05/24 19:12:51;;;;;;;2.38;0.45;;;16.50;58.30;;;;;;5023337;28;59245;-58
2021/05/24 19:15:17;;;;;;;4.40;0.70;;;16.50;59.30;;;;;;5024289;28;20421;-58
2021/05/24 19:17:42;;;;;;;4.63;0.98;;;16.40;60.20;;;;;;5023115;28;20045;-59
2021/05/24 19:20:08;;;;;;;1.75;0.80;;;16.40;60.80;;;;;;5025296;28;20025;-59
2021/05/24 19:22:34;;;;;;;5.47;0.75;;;16.30;60.80;;;;;;5026155;28;20135;-58
2021/05/24 19:24:59;;;;;;;0.98;0.73;;;16.30;62.30;;;;;;5024858;28;20429;-58
2021/05/24 19:27:25;;;;;;;1.35;0.90;;;16.20;61.80;;;;;;5024010;28;20096;-58
2021/05/24 19:29:51;;;;;;;1.83;0.73;;;16.10;62.30;;;;;;5021521;28;20022;-58
2021/05/24 19:32:16;;;;;;;3.70;0.65;;;16.10;62.80;;;;;;5019960;28;20506;-58
2021/05/24 19:34:42;;;;;;;3.35;1.42;;;16.00;62.80;;;;;;5024353;28;20033;-58
2021/05/24 19:37:09;;;;;;;4.60;0.90;;;16.00;63.20;;;;;;5021626;28;20367;-58
2021/05/24 19:39:35;;;;;;;3.60;1.00;;;15.90;63.10;;;;;;5020984;28;20030;-58
2021/05/24 19:42:02;;;;;;;4.93;0.80;;;15.90;63.30;;;;;;5022408;28;20062;-58
2021/05/24 19:44:27;;;;;;;3.45;0.75;;;16.00;63.90;;;;;;5021528;28;20449;-59
2021/05/24 19:46:56;;;;;;;2.22;0.70;;;15.90;64.20;;;;;;5037212;28;20056;-59
2021/05/24 19:51:55;;;;;;;1.90;0.50;;;15.90;64.70;;;;;;5025632;28;20017;-59
2021/05/24 20:10:45;;;;;;;1.10;0.55;;;15.50;70.60;;;;;;5026269;28;20037;-59
2021/05/24 20:25:02;;;;;;;0.73;0.40;;;15.10;72.40;;;;;;5024096;28;20072;-60
2021/05/24 20:27:28;;;;;;;2.70;0.60;;;15.10;72.80;;;;;;5028334;28;20462;-60
2021/05/24 20:29:53;;;;;;;3.10;0.88;;;15.10;72.70;;;;;;5025019;28;20029;-60
2021/05/24 20:32:19;;;;;;;2.50;1.10;;;15.10;73.30;;;;;;5026810;28;20375;-60
2021/05/24 20:34:45;;;;;;;1.25;0.82;;;15.10;74.10;;;;;;5024770;28;20059;-60
2021/05/24 20:37:10;;;;;;;2.33;0.63;;;15.00;74.80;;;;;;5023050;28;20048;-60
2021/05/24 20:39:36;;;;;;;4.82;0.65;;;15.00;74.90;;;;;;5025426;28;20079;-60
2021/05/24 20:42:01;;;;;;;2.10;0.70;;;15.00;75.10;;;;;;5024065;28;20065;-60
2021/05/24 20:44:27;;;;;;;2.17;0.73;;;14.90;75.50;;;;;;5025820;28;20433;-59
2021/05/24 20:46:52;;;;;;;4.80;1.48;;;14.90;75.70;;;;;;5026953;28;20036;-60
2021/05/24 20:49:19;;;;;;;1.35;0.63;;;14.90;76.30;;;;;;5024739;28;20557;-60
2021/05/24 20:51:46;;;;;;;4.40;0.80;;;14.80;76.80;;;;;;5026133;28;20060;-59
2021/05/24 20:54:12;;;;;;;2.28;1.20;;;14.80;78.00;;;;;;5021487;28;20457;-59
2021/05/24 20:56:38;;;;;;;2.85;1.13;;;14.70;78.40;;;;;;5025756;28;20021;-60
2021/05/24 20:59:05;;;;;;;2.38;1.08;;;14.50;80.30;;;;;;5023568;28;20029;-60
2021/05/24 21:01:31;;;;;;;3.63;0.95;;;14.40;80.10;;;;;;5027336;28;20441;-60
2021/05/24 21:03:56;;;;;;;1.85;1.00;;;14.30;78.50;;;;;;5016469;28;20025;-60
2021/05/24 21:06:22;;;;;;;3.92;1.45;;;14.10;79.30;;;;;;5023573;28;20017;-60
2021/05/24 21:08:48;;;;;;;1.67;1.35;;;14.00;80.50;;;;;;5021466;28;20041;-59
2021/05/24 21:11:14;;;;;;;5.82;1.55;;;13.90;81.30;;;;;;5040643;28;20033;-60
2021/05/24 21:13:39;;;;;;;3.95;1.23;;;13.90;82.40;;;;;;5025617;28;20108;-60
2021/05/24 21:16:05;;;;;;;2.22;1.02;;;13.90;83.50;;;;;;5024149;28;20112;-60
2021/05/24 21:18:31;;;;;;;2.38;1.17;;;14.00;83.60;;;;;;5023731;28;20043;-60
2021/05/24 21:20:56;;;;;;;2.42;0.85;;;13.90;83.80;;;;;;5023792;28;20065;-59
2021/05/24 21:23:22;;;;;;;3.95;1.17;;;14.00;83.10;;;;;;5023311;28;20092;-60
2021/05/24 21:25:48;;;;;;;2.40;0.88;;;13.90;82.70;;;;;;5024195;28;20084;-59
2021/05/24 21:28:14;;;;;;;3.47;1.23;;;13.80;83.60;;;;;;5023738;28;20338;-59
2021/05/24 21:30:39;;;;;;;4.97;1.05;;;13.80;82.20;;;;;;5027363;28;20428;-59
2021/05/24 21:35:49;;;;;;;4.38;1.83;;;13.70;84.30;;;;;;5025400;28;20453;-59
2021/05/24 21:38:14;;;;;;;3.45;0.90;;;13.70;83.40;;;;;;5023207;28;20053;-59
2021/05/24 21:40:41;;;;;;;2.60;0.70;;;13.70;82.90;;;;;;5020761;28;20930;-60
2021/05/24 21:43:08;;;;;;;2.53;0.77;;;13.70;83.50;;;;;;5024394;28;20064;-60
2021/05/24 21:45:35;;;;;;;1.83;0.70;;;13.90;83.80;;;;;;5024587;28;20056;-59
2021/05/24 21:48:01;;;;;;;4.35;1.40;;;13.90;83.90;;;;;;5024683;28;20038;-59
2021/05/24 21:50:27;;;;;;;4.65;1.77;;;13.90;85.50;;;;;;5024220;28;20033;-60
2021/05/24 21:52:52;;;;;;;3.67;1.65;;;13.90;85.80;;;;;;5026299;28;20044;-60
2021/05/24 21:55:22;;;;;;;3.13;1.05;;;13.90;85.90;;;;;;5025515;28;20136;-59
2021/05/24 21:57:48;;;;;;;6.97;2.42;;;13.90;85.30;;;;;;5022612;28;20029;-60
2021/05/24 22:00:26;;;;;;;3.90;1.30;;;13.90;85.50;;;;;;5021399;28;20507;-60
2021/05/24 22:02:52;;;;;;;3.42;1.48;;;13.90;85.30;;;;;;5026183;28;20021;-59
2021/05/24 22:05:19;;;;;;;3.33;1.60;;;13.80;83.90;;;;;;5022869;28;20030;-60
2021/05/24 22:07:46;;;;;;;3.35;1.10;;;13.70;83.60;;;;;;5025022;28;20497;-60
2021/05/24 22:10:14;;;;;;;1.10;1.00;;;13.60;83.10;;;;;;5023277;28;20437;-60
2021/05/24 22:12:41;;;;;;;3.47;1.83;;;13.50;83.20;;;;;;5025531;28;20347;-60
2021/05/24 22:15:07;;;;;;;1.60;0.60;;;13.50;85.00;;;;;;5023238;28;20067;-60
2021/05/24 22:17:32;;;;;;;3.28;1.05;;;13.60;85.50;;;;;;5022178;28;20510;-60
2021/05/24 22:19:59;;;;;;;5.53;1.00;;;13.70;86.10;;;;;;5022913;28;20053;-60
2021/05/24 22:22:26;;;;;;;2.88;0.98;;;13.70;87.20;;;;;;5024733;28;20088;-61
2021/05/24 22:24:53;;;;;;;3.97;1.10;;;13.70;86.30;;;;;;5020516;28;20076;-61
2021/05/24 22:27:24;;;;;;;1.15;0.75;;;13.80;86.80;;;;;;5023072;28;20061;-61
2021/05/24 22:29:50;;;;;;;1.60;0.88;;;13.70;87.10;;;;;;5023561;28;20307;-61
2021/05/24 22:32:16;;;;;;;1.75;0.80;;;13.70;87.90;;;;;;5023997;28;20025;-61
2021/05/24 22:34:42;;;;;;;3.28;1.30;;;13.70;87.70;;;;;;5023922;28;20490;-61
2021/05/24 22:37:08;;;;;;;1.38;0.88;;;13.70;87.50;;;;;;5022817;28;20436;-61
2021/05/24 22:39:34;;;;;;;1.55;0.65;;;13.60;88.00;;;;;;5016765;28;20025;-61
2021/05/24 22:41:59;;;;;;;;;;;13.60;89.70;;;;;;5023314;28;20113;-60
2021/05/24 22:44:25;;;;;;;1.35;0.80;;;13.60;87.70;;;;;;5023357;28;19917;-61
2021/05/24 22:46:51;;;;;;;2.70;1.15;;;13.50;88.20;;;;;;5024872;28;20017;-61
2021/05/24 22:49:17;;;;;;;1.55;0.80;;;13.50;88.10;;;;;;5022890;28;20033;-61
2021/05/24 22:51:42;;;;;;;;;;;13.40;86.60;;;;;;5022545;28;20036;-59
2021/05/24 22:54:08;;;;;;;1.40;0.82;;;13.30;86.30;;;;;;5018945;28;19919;-61
2021/05/24 22:56:33;;;;;;;;;;;13.20;85.90;;;;;;5023270;28;20112;-61
2021/05/24 22:58:59;;;;;;;1.48;1.10;;;13.20;86.40;;;;;;5022565;28;19967;-58
2021/05/24 23:01:24;;;;;;;;;;;13.10;87.90;;;;;;5023841;28;20116;-60
2021/05/24 23:03:50;;;;;;;2.20;1.27;;;13.10;89.00;;;;;;5022738;28;20044;-61
2021/05/24 23:06:18;;;;;;;;;;;13.10;90.80;;;;;;5022120;28;20036;-61
2021/05/24 23:08:44;;;;;;;1.90;0.82;;;13.20;90.10;;;;;;5022166;28;19913;-62
2021/05/24 23:11:10;;;;;;;;;;;13.20;90.30;;;;;;5022112;28;20033;-60
2021/05/24 23:13:36;;;;;;;2.85;0.80;;;13.20;90.00;;;;;;5022278;28;20199;-60
2021/05/24 23:16:02;;;;;;;;;;;13.20;88.90;;;;;;5024429;28;20071;-61
2021/05/24 23:18:28;;;;;;;1.63;0.60;;;13.20;89.00;;;;;;5021370;28;19913;-61
2021/05/24 23:20:54;;;;;;;2.67;1.05;;;13.20;89.10;;;;;;5023654;28;20509;-60
2021/05/24 23:23:20;;;;;;;0.93;0.50;;;13.20;88.60;;;;;;5023094;28;20505;-61
2021/05/24 23:25:46;;;;;;;;;;;13.20;88.30;;;;;;5027948;28;20036;-60
2021/05/24 23:30:41;;;;;;;2.38;0.70;;;13.10;88.00;;;;;;5007426;28;20088;-58
2021/05/24 23:33:07;;;;;;;;;;;13.10;87.70;;;;;;5009536;28;20030;-58
2021/05/24 23:35:32;;;;;;;1.92;0.68;;;13.10;86.80;;;;;;5011021;28;19910;-57
2021/05/24 23:37:58;;;;;;;;;;;13.00;86.80;;;;;;5029999;28;20034;-57
2021/05/24 23:40:23;;;;;;;0.57;0.30;;;12.90;86.70;;;;;;5027022;28;19909;-58
2021/05/24 23:42:49;;;;;;;;;;;12.90;87.20;;;;;;5030431;28;20076;-58
2021/05/24 23:45:15;;;;;;;0.70;0.40;;;12.90;86.70;;;;;;5026045;28;20511;-58
2021/05/24 23:47:40;;;;;;;;;;;12.80;86.60;;;;;;5028393;28;20066;-58
2021/05/24 23:50:07;;;;;;;1.77;0.40;;;12.80;86.40;;;;;;5026331;28;19912;-58
2021/05/24 23:52:33;;;;;;;2.60;0.50;;;12.80;86.70;;;;;;5027542;28;20033;-58
2021/05/24 23:54:59;;;;;;;;;;;12.70;86.60;;;;;;5028547;28;20468;-58
2021/05/24 23:57:25;;;;;;;0.80;0.40;;;12.70;86.80;;;;;;5028434;28;19909;-58
2021/05/24 23:59:50;;;;;;;;;;;12.60;86.80;;;;;;5026433;28;20091;-58
